Date,TemperatureHighF,TemperatureAvgF,TemperatureLowF,DewpointHighF,DewpointAvgF,DewpointLowF,HumidityHigh,HumidityAvg,HumidityLow,PressureMaxIn,PressureMinIn,WindSpeedMaxMPH,WindSpeedAvgMPH,GustSpeedMaxMPH,PrecipitationSumIn
2014-1-1,13,3,-10,6,-3,-17,90,75,62,30.58,30.22,0,0,0,0.00
2014-1-2,-10,-12,-14,-14,-17,-19,84,78,68,30.57,30.17,0,0,2,0.00
2014-1-3,-4,-8,-13,-10,-15,-18,84,72,61,30.49,30.14,1,0,8,0.00
2014-1-4,22,9,-8,8,-3,-15,76,59,42,30.48,30.12,14,3,30,0.08
2014-1-5,34,30,21,33,17,8,99,59,46,30.32,29.80,12,2,21,0.00
2014-1-6,51,36,19,51,32,7,99,84,60,29.80,29.31,17,4,24,0.37
2014-1-7,19,9,5,12,-2,-11,86,58,35,30.14,29.61,17,8,30,0.66
2014-1-8,18,12,8,7,4,0,78,67,56,30.47,30.14,11,4,20,0.00
2014-1-9,25,19,14,10,8,5,80,61,50,30.69,30.45,11,3,14,0.00
2014-1-10,35,26,14,30,20,8,87,77,65,30.59,30.24,10,3,16,0.00
2014-1-11,53,45,34,52,44,30,99,96,84,30.24,29.22,16,5,30,0.52
2014-1-12,45,38,35,41,31,26,87,76,66,30.03,29.32,11,4,18,0.01
2014-1-13,48,40,33,34,28,25,78,62,43,30.09,29.81,12,5,27,0.00
2014-1-14,46,41,35,42,39,32,99,92,63,29.90,29.78,13,3,22,0.34
2014-1-15,47,36,30,34,31,27,99,81,58,30.06,29.90,8,2,15,0.00
2014-1-16,34,29,25,30,26,23,99,90,71,30.09,30.02,5,2,9,0.00
2014-1-17,37,30,23,29,26,23,99,85,69,30.03,29.93,8,3,16,0.01
2014-1-18,46,33,28,30,26,21,92,75,49,29.97,29.79,11,3,16,0.00
2014-1-19,29,27,23,28,24,20,99,90,75,29.82,29.49,10,2,20,0.01
2014-1-20,31,11,-6,24,7,-13,99,83,66,30.11,29.51,8,3,15,0.00
2014-1-21,8,-6,-12,-6,-15,-18,78,67,47,30.25,30.10,6,2,10,0.00
2014-1-22,-1,-8,-17,-10,-15,-20,84,72,57,30.20,30.02,8,2,13,0.00
2014-1-23,14,-1,-7,0,-9,-13,78,68,49,30.31,30.09,11,1,16,0.00
2014-1-24,14,3,-10,-1,-8,-15,81,60,43,30.37,29.86,14,3,24,0.01
2014-1-25,21,18,14,16,8,-1,87,67,50,29.87,29.37,14,5,26,0.00
2014-1-26,19,6,-5,16,-7,-15,86,57,40,29.86,29.42,19,4,30,0.07
2014-1-27,30,19,5,25,6,-12,98,59,28,30.09,29.39,17,6,29,2.55
2014-1-28,20,9,2,-2,-7,-13,62,48,31,30.31,30.09,11,4,19,0.00
2014-1-29,19,11,5,5,-4,-9,70,50,32,30.24,30.00,11,4,18,0.00
2014-1-30,30,20,10,10,6,3,77,55,40,30.42,30.01,14,4,27,0.00
2014-1-31,35,28,24,24,14,4,82,56,40,30.26,29.98,12,3,30,0.00
2014-2-1,41,31,23,34,25,16,99,78,50,30.37,29.96,11,2,24,0.04
2014-2-2,37,33,26,35,30,21,99,90,79,30.26,29.92,11,3,19,0.09
2014-2-3,27,19,12,24,12,3,99,75,58,30.43,30.25,6,2,10,0.00
2014-2-4,30,19,11,15,10,3,83,68,52,30.56,30.42,7,1,11,0.00
2014-2-5,23,16,8,21,14,7,99,92,71,30.43,29.93,9,2,16,0.00
2014-2-6,22,10,-1,12,4,-4,94,75,52,30.39,30.21,8,2,16,0.00
2014-2-7,27,17,12,14,8,5,86,68,51,30.26,30.19,14,4,20,0.00
2014-2-8,26,17,11,9,7,4,88,65,46,30.33,30.25,9,2,15,0.00
2014-2-9,32,19,15,15,11,8,97,74,44,30.26,30.05,5,1,9,0.00
2014-2-10,26,15,9,16,10,4,99,83,57,30.30,30.06,7,1,11,0.00
2014-2-11,18,8,0,6,0,-7,95,71,50,30.60,30.29,8,2,15,0.00
2014-2-12,27,13,-4,4,-3,-12,78,52,32,30.66,30.36,11,3,19,0.00
2014-2-13,31,24,18,25,14,-4,99,71,36,30.36,29.47,11,3,22,0.00
2014-2-14,27,23,21,26,22,20,99,98,90,29.80,29.21,13,5,21,0.00
2014-2-15,39,27,15,28,22,15,99,84,56,29.92,29.80,8,2,14,0.00
2014-2-16,22,12,7,16,3,-6,99,66,46,30.18,29.86,13,4,21,0.00
2014-2-17,23,10,0,-1,-7,-11,70,48,27,30.49,30.18,11,2,18,0.00
2014-2-18,34,21,7,24,10,-8,97,66,33,30.37,30.06,12,5,21,0.00
2014-2-19,36,31,22,34,26,19,98,84,61,30.11,29.76,14,5,21,0.00
2014-2-20,48,37,30,35,28,22,99,72,43,30.24,29.98,8,2,12,0.07
2014-2-21,44,38,34,40,36,34,99,94,78,30.17,29.70,11,3,18,0.32
2014-2-22,48,39,33,36,23,11,99,55,25,29.99,29.79,15,5,31,0.15
2014-2-23,48,36,28,24,18,14,65,49,29,30.02,29.89,11,3,20,0.00
2014-2-24,28,21,14,20,11,5,94,67,48,30.06,29.89,14,5,24,0.00
2014-2-25,22,14,9,12,7,4,88,75,62,30.06,29.98,11,3,18,0.00
2014-2-26,23,13,5,11,0,-9,91,57,28,29.98,29.83,13,4,24,0.01
2014-2-27,27,14,6,13,0,-11,83,54,29,29.99,29.62,12,4,23,0.00
2014-2-28,18,8,-1,-3,-8,-13,73,49,32,30.49,29.99,9,3,13,0.00
2014-3-1,32,20,5,16,1,-13,61,44,30,30.46,30.09,11,5,18,0.00
2014-3-2,28,17,6,23,9,-4,99,73,47,30.27,30.10,10,3,15,0.00
2014-3-3,16,7,1,-1,-6,-12,81,55,38,30.41,30.16,9,3,17,0.00
2014-3-4,24,10,1,9,-1,-10,88,61,29,30.43,30.35,5,1,8,0.00
2014-3-5,20,12,5,16,5,-7,96,74,54,30.69,30.37,8,2,16,0.00
2014-3-6,26,9,-4,7,-6,-10,82,55,24,30.78,30.67,4,1,8,0.00
2014-3-9,23,22,21,19,17,14,91,81,68,29.96,29.95,4,1,6,0.00
2014-3-10,38,29,21,33,24,19,99,83,64,29.95,29.56,9,4,17,0.00
2014-3-11,45,38,33,36,32,27,99,81,58,29.82,29.52,12,3,19,0.07
2014-3-12,36,25,12,30,22,11,99,90,72,29.85,29.50,14,5,26,0.00
2014-3-13,11,7,4,11,6,3,99,94,83,29.76,29.51,15,8,25,0.00
2014-3-14,38,23,8,23,8,-6,59,53,44,30.14,29.73,14,5,30,0.00
2014-3-15,43,37,24,36,28,18,99,72,50,30.05,29.64,15,4,25,0.09
2014-3-16,24,14,8,18,2,-5,78,59,38,30.33,30.04,14,6,21,0.01
2014-3-18,25,20,16,11,9,7,75,61,52,30.41,30.37,2,0,4,0.00
2014-3-19,44,27,15,33,8,1,99,49,21,30.38,29.94,12,2,26,0.00
2014-3-20,41,36,32,38,32,27,99,86,63,29.94,29.70,13,4,23,0.15
2014-3-21,39,31,27,31,22,14,99,68,45,30.11,29.77,13,5,21,0.00
2014-3-22,36,30,25,32,23,17,94,77,64,30.12,29.67,17,4,27,0.00
2014-3-23,33,20,9,27,8,-3,89,61,43,30.27,29.98,15,5,23,0.00
2014-3-24,32,17,4,5,0,-5,70,48,25,30.31,30.16,8,2,11,0.00
2014-3-25,40,26,14,13,7,3,71,47,27,30.18,30.03,9,3,14,0.00
2014-3-26,28,23,16,18,9,0,83,54,38,30.24,29.97,17,6,27,0.00
2014-3-27,40,24,10,15,4,-2,60,42,21,30.40,30.19,10,2,16,0.00
2014-3-28,43,38,32,43,33,13,99,87,39,30.19,29.88,14,6,29,0.21
2014-3-29,45,38,34,41,33,28,99,83,67,30.41,30.16,7,2,12,0.01
2014-3-30,37,34,30,37,33,28,99,98,82,30.15,29.94,11,3,20,0.64
2014-3-31,41,32,29,31,28,26,95,85,65,30.31,30.06,12,2,21,0.00
2014-4-1,50,36,25,27,24,17,92,63,34,30.32,30.07,8,2,14,0.00
2014-4-2,58,45,36,38,32,25,73,59,44,30.19,30.03,11,3,21,0.00
2014-4-3,43,34,28,28,24,22,84,67,49,30.32,30.18,9,3,13,0.00
2014-4-4,57,39,26,37,26,18,99,62,29,30.29,29.80,12,2,22,0.26
2014-4-5,46,38,34,39,32,24,99,79,59,30.07,29.76,15,5,24,0.06
2014-4-6,57,41,31,29,25,21,79,55,28,30.26,30.07,12,4,19,0.00
2014-4-7,66,50,40,39,26,20,91,39,22,30.27,29.93,10,3,18,0.05
2014-4-8,57,45,37,51,43,36,99,93,79,29.93,29.34,10,2,21,0.31
2014-4-9,43,38,32,40,26,14,99,67,35,30.04,29.65,14,4,24,0.00
2014-4-10,64,48,28,34,26,16,69,43,28,30.11,29.82,16,5,30,0.00
2014-4-11,61,52,44,45,36,24,99,57,27,30.14,29.85,11,3,21,0.05
2014-4-12,62,50,37,39,32,26,84,51,33,30.32,30.12,11,3,16,0.00
2014-4-13,69,53,44,52,42,30,99,68,49,30.32,29.90,16,4,24,0.17
2014-4-14,83,68,50,61,56,50,99,69,40,29.99,29.67,15,7,25,0.31
2014-4-15,67,50,24,63,48,24,99,94,77,30.06,29.53,12,4,27,0.99